createdAt,value
2018-02-03T00:02:21.029Z,3.10
2018-02-03T00:04:49.549Z,3.10
2018-02-03T00:07:18.112Z,3.10
2018-02-03T00:09:46.650Z,3.10
2018-02-03T00:12:14.854Z,3.10
2018-02-03T00:14:43.415Z,3.10
2018-02-03T00:17:11.943Z,3.10
2018-02-03T00:19:40.514Z,3.10
2018-02-03T00:22:08.479Z,3.10
2018-02-03T00:24:36.995Z,3.10
2018-02-03T00:27:06.325Z,3.10
2018-02-03T00:29:34.900Z,3.10
2018-02-03T00:32:03.457Z,3.10
2018-02-03T00:34:32.006Z,3.10
2018-02-03T00:37:00.554Z,3.10
2018-02-03T00:39:29.110Z,3.10
2018-02-03T00:41:58.434Z,3.10
2018-02-03T00:44:26.979Z,3.10
2018-02-03T00:46:55.515Z,3.10
2018-02-03T00:49:24.038Z,3.10
2018-02-03T00:51:52.594Z,3.10
2018-02-03T00:54:21.142Z,3.10
2018-02-03T00:56:49.642Z,3.10
2018-02-03T00:59:18.174Z,3.10
2018-02-03T01:01:46.738Z,3.10
2018-02-03T01:04:15.288Z,3.10
2018-02-03T01:06:43.805Z,3.10
2018-02-03T01:09:12.366Z,3.10
2018-02-03T01:11:40.882Z,3.10
2018-02-03T01:14:09.441Z,3.10
2018-02-03T01:16:37.988Z,3.20
2018-02-03T01:19:06.469Z,3.20
2018-02-03T01:21:35.007Z,3.20
2018-02-03T01:24:03.557Z,3.20
2018-02-03T01:26:32.127Z,3.20
2018-02-03T01:29:00.682Z,3.20
2018-02-03T01:31:29.990Z,3.20
2018-02-03T01:33:59.162Z,3.10
2018-02-03T01:36:27.735Z,3.10
2018-02-03T01:38:56.286Z,3.10
2018-02-03T01:41:24.678Z,3.10
2018-02-03T01:43:53.230Z,3.00
2018-02-03T01:46:21.778Z,3.00
2018-02-03T01:48:50.327Z,3.00
2018-02-03T01:51:18.877Z,3.00
2018-02-03T01:53:47.369Z,3.00
2018-02-03T01:56:15.922Z,3.00
2018-02-03T01:58:45.249Z,3.00
2018-02-03T02:01:13.442Z,3.00
2018-02-03T02:03:41.994Z,3.00
2018-02-03T02:06:10.559Z,3.10
2018-02-03T02:08:39.853Z,3.00
2018-02-03T02:11:09.153Z,3.00
2018-02-03T02:13:37.687Z,3.00
2018-02-03T02:16:05.985Z,3.00
2018-02-03T02:18:34.530Z,3.00
2018-02-03T02:21:03.050Z,2.90
2018-02-03T02:23:31.541Z,2.90
2018-02-03T02:26:00.107Z,2.90
2018-02-03T02:28:28.333Z,2.80
2018-02-03T02:30:56.894Z,2.80
2018-02-03T02:33:25.409Z,2.80
2018-02-03T02:35:53.943Z,2.80
2018-02-03T02:38:22.479Z,2.80
2018-02-03T02:40:51.040Z,2.80
2018-02-03T02:43:19.606Z,2.70
2018-02-03T02:45:48.910Z,2.60
2018-02-03T02:48:18.197Z,2.60
2018-02-03T02:50:45.985Z,2.60
2018-02-03T02:53:15.262Z,2.40
2018-02-03T02:55:43.818Z,2.40
2018-02-03T02:58:12.360Z,2.40
2018-02-03T03:00:41.621Z,2.40
2018-02-03T03:03:10.153Z,2.40
2018-02-03T03:05:38.697Z,2.50
2018-02-03T03:08:07.206Z,2.50
2018-02-03T03:10:35.757Z,2.60
2018-02-03T03:13:04.320Z,2.60
2018-02-03T03:15:32.842Z,2.60
2018-02-03T03:18:01.416Z,2.70
2018-02-03T03:20:30.714Z,2.70
2018-02-03T03:22:59.979Z,2.70
2018-02-03T03:25:28.594Z,2.70
2018-02-03T03:27:57.113Z,2.60
2018-02-03T03:30:25.603Z,2.60
2018-02-03T03:32:54.130Z,2.60
2018-02-03T03:35:22.694Z,2.60
2018-02-03T03:37:51.202Z,2.60
2018-02-03T03:40:19.763Z,2.70
2018-02-03T03:42:48.312Z,2.70
2018-02-03T03:45:17.661Z,2.70
2018-02-03T03:47:46.237Z,2.70
2018-02-03T03:50:14.797Z,2.70
2018-02-03T03:52:43.314Z,2.80
2018-02-03T03:55:11.693Z,2.80
2018-02-03T03:57:40.268Z,2.80
2018-02-03T04:00:08.794Z,2.80
2018-02-03T04:02:37.323Z,2.80
2018-02-03T04:05:05.871Z,2.70
2018-02-03T04:07:34.267Z,2.70
2018-02-03T04:10:02.835Z,2.80
2018-02-03T04:12:30.765Z,2.80
2018-02-03T04:15:00.028Z,2.80
2018-02-03T04:17:28.573Z,2.80
2018-02-03T04:19:57.116Z,2.80
2018-02-03T04:22:26.429Z,2.80
2018-02-03T04:24:55.754Z,2.80
2018-02-03T04:27:24.283Z,2.80
2018-02-03T04:29:52.820Z,2.80
2018-02-03T04:32:21.355Z,2.80
2018-02-03T04:34:49.900Z,2.80
2018-02-03T04:37:18.426Z,2.70
2018-02-03T04:39:47.736Z,2.70
2018-02-03T04:42:16.806Z,2.70
2018-02-03T04:44:45.303Z,2.70
2018-02-03T04:47:13.858Z,2.70
2018-02-03T04:49:42.390Z,2.70
2018-02-03T04:52:11.663Z,2.70
2018-02-03T04:54:40.974Z,2.70
2018-02-03T04:57:10.277Z,2.70
2018-02-03T04:59:39.538Z,2.70
2018-02-03T05:05:02.374Z,2.60
2018-02-03T05:07:31.684Z,2.60
2018-02-03T05:10:00.214Z,2.60
2018-02-03T05:12:28.758Z,2.60
2018-02-03T05:14:57.295Z,2.60
2018-02-03T05:17:26.634Z,2.60
2018-02-03T05:19:55.197Z,2.60
2018-02-03T05:22:23.766Z,2.60
2018-02-03T05:24:53.085Z,2.60
2018-02-03T05:27:21.629Z,2.60
2018-02-03T05:29:50.175Z,2.60
2018-02-03T05:32:18.755Z,2.60
2018-02-03T05:34:47.142Z,2.60
2018-02-03T05:37:15.753Z,2.60
2018-02-03T05:39:44.106Z,2.60
2018-02-03T05:42:12.622Z,2.60
2018-02-03T05:44:57.578Z,2.60
2018-02-03T05:47:25.946Z,2.60
2018-02-03T05:49:54.490Z,2.60
2018-02-03T05:52:23.046Z,2.60
2018-02-03T05:54:52.371Z,2.70
2018-02-03T05:57:20.901Z,2.60
2018-02-03T05:59:49.463Z,2.60
2018-02-03T06:02:18.031Z,2.50
2018-02-03T06:04:46.529Z,2.50
2018-02-03T06:07:15.103Z,2.50
2018-02-03T06:09:43.678Z,2.40
2018-02-03T06:12:12.263Z,2.40
2018-02-03T06:14:40.777Z,2.40
2018-02-03T06:17:09.350Z,2.30
2018-02-03T06:19:37.896Z,2.30
2018-02-03T06:22:07.210Z,2.40
2018-02-03T06:24:36.517Z,2.40
2018-02-03T06:27:05.071Z,2.40
2018-02-03T06:29:33.594Z,2.40
2018-02-03T06:32:02.137Z,2.40
2018-02-03T06:34:30.687Z,2.40
2018-02-03T06:36:59.235Z,2.40
2018-02-03T06:39:27.787Z,2.30
2018-02-03T06:41:56.288Z,2.30
2018-02-03T06:44:24.826Z,2.30
2018-02-03T06:46:53.948Z,2.30
2018-02-03T06:49:22.208Z,2.20
2018-02-03T06:51:51.518Z,2.20
2018-02-03T06:54:20.070Z,2.20
2018-02-03T06:56:49.334Z,2.20
2018-02-03T06:59:17.923Z,2.20
2018-02-03T07:01:46.478Z,2.20
2018-02-03T07:04:15.004Z,2.20
2018-02-03T07:06:43.550Z,2.20
2018-02-03T07:09:12.096Z,2.20
2018-02-03T07:11:41.419Z,2.20
2018-02-03T07:14:09.953Z,2.20
2018-02-03T07:16:38.515Z,2.20
2018-02-03T07:19:06.998Z,2.30
2018-02-03T07:21:35.531Z,2.30
2018-02-03T07:24:03.937Z,2.30
2018-02-03T07:26:32.458Z,2.30
2018-02-03T07:29:00.856Z,2.30
2018-02-03T07:31:30.190Z,2.40
2018-02-03T07:33:58.750Z,2.30
2018-02-03T07:36:27.291Z,2.40
2018-02-03T07:38:55.801Z,2.40
2018-02-03T07:41:25.100Z,2.50
2018-02-03T07:43:54.398Z,2.50
2018-02-03T07:46:23.705Z,2.60
2018-02-03T07:48:52.978Z,2.60
2018-02-03T07:51:21.537Z,2.60
2018-02-03T07:53:50.169Z,2.60
2018-02-03T07:56:19.632Z,2.70
2018-02-03T07:58:48.226Z,2.70
2018-02-03T08:01:16.762Z,2.70
2018-02-03T08:03:45.286Z,2.80
2018-02-03T08:06:13.846Z,2.80
2018-02-03T08:08:42.374Z,2.80
2018-02-03T08:11:10.924Z,2.90
2018-02-03T08:13:39.503Z,2.90
2018-02-03T08:16:08.054Z,2.90
2018-02-03T08:18:36.582Z,3.00
2018-02-03T08:21:05.132Z,3.00
2018-02-03T08:23:33.673Z,3.10
2018-02-03T08:26:03.054Z,3.20
2018-02-03T08:28:31.647Z,3.20
2018-02-03T08:31:00.226Z,3.20
2018-02-03T08:33:28.737Z,3.20
2018-02-03T08:35:58.054Z,3.20
2018-02-03T08:38:26.653Z,3.20
2018-02-03T08:40:55.218Z,3.20
2018-02-03T08:43:23.786Z,3.30
2018-02-03T08:45:52.041Z,3.30
2018-02-03T08:48:24.834Z,3.30
2018-02-03T08:50:54.141Z,3.30
2018-02-03T08:53:23.511Z,3.30
2018-02-03T08:55:52.078Z,3.30
2018-02-03T08:58:20.593Z,3.20
2018-02-03T09:00:49.906Z,3.10
2018-02-03T09:03:19.218Z,3.00
2018-02-03T09:05:47.764Z,3.00
2018-02-03T09:08:16.333Z,3.00
2018-02-03T09:10:44.909Z,2.90
2018-02-03T09:13:13.417Z,2.80
2018-02-03T09:15:41.980Z,2.70
2018-02-03T09:18:10.544Z,2.60
2018-02-03T09:20:39.093Z,2.60
2018-02-03T09:23:08.442Z,2.60
2018-02-03T09:25:37.010Z,2.50
2018-02-03T09:28:05.506Z,2.50
2018-02-03T09:30:34.069Z,2.50
2018-02-03T09:33:02.651Z,2.50
2018-02-03T09:35:31.158Z,2.40
2018-02-03T09:37:59.771Z,2.40
2018-02-03T09:40:28.315Z,2.30
2018-02-03T09:42:56.820Z,2.40
2018-02-03T09:45:25.361Z,2.40
2018-02-03T09:47:53.987Z,2.40
2018-02-03T09:50:22.706Z,2.40
2018-02-03T09:52:50.926Z,2.50
2018-02-03T09:55:19.514Z,2.60
2018-02-03T09:57:48.102Z,2.90
2018-02-03T10:00:18.690Z,3.20
2018-02-03T10:02:47.246Z,3.40
2018-02-03T10:05:16.654Z,3.80
2018-02-03T10:07:45.680Z,4.00
2018-02-03T10:10:14.201Z,4.00
2018-02-03T10:12:42.737Z,4.20
2018-02-03T10:15:11.326Z,4.30
2018-02-03T10:17:39.903Z,4.50
2018-02-03T10:20:08.525Z,4.50
2018-02-03T10:22:36.795Z,4.60
2018-02-03T10:25:05.413Z,4.50
2018-02-03T10:27:42.793Z,4.60
2018-02-03T10:30:11.451Z,4.60
2018-02-03T10:32:40.029Z,4.60
2018-02-03T10:35:09.319Z,4.60
2018-02-03T10:37:37.630Z,4.70
2018-02-03T10:40:06.266Z,4.80
2018-02-03T10:42:34.842Z,4.90
2018-02-03T10:45:03.459Z,4.90
2018-02-03T10:47:31.947Z,4.80
2018-02-03T10:50:00.503Z,4.90
2018-02-03T10:52:29.013Z,5.00
2018-02-03T10:54:56.942Z,5.10
2018-02-03T10:57:25.178Z,5.30
2018-02-03T10:59:53.721Z,5.30
2018-02-03T11:02:22.212Z,5.20
2018-02-03T11:04:50.855Z,5.10
2018-02-03T11:07:19.423Z,5.10
2018-02-03T11:09:47.911Z,5.10
2018-02-03T11:12:17.227Z,4.90
2018-02-03T11:14:46.520Z,4.90
2018-02-03T11:17:15.830Z,4.60
2018-02-03T11:19:44.406Z,4.60
2018-02-03T11:22:12.971Z,4.60
2018-02-03T11:24:42.282Z,4.60
2018-02-03T11:27:11.640Z,4.70
2018-02-03T11:29:40.225Z,4.70
2018-02-03T11:32:08.833Z,4.90
2018-02-03T11:34:37.365Z,5.10
2018-02-03T11:37:05.741Z,5.30
2018-02-03T11:39:34.278Z,5.40
2018-02-03T11:42:02.222Z,5.60
2018-02-03T11:44:30.756Z,5.90
2018-02-03T11:46:59.327Z,6.20
2018-02-03T11:49:28.637Z,6.10
2018-02-03T11:51:57.201Z,6.10
2018-02-03T11:54:25.777Z,6.00
2018-02-03T11:56:54.353Z,6.00
2018-02-03T11:59:22.898Z,5.90
2018-02-03T12:01:51.167Z,5.90
2018-02-03T12:04:19.707Z,5.70
2018-02-03T12:06:48.234Z,5.50
2018-02-03T12:09:16.772Z,5.50
2018-02-03T12:11:45.289Z,5.40
2018-02-03T12:14:15.830Z,5.50
2018-02-03T12:16:45.126Z,5.40
2018-02-03T12:19:13.690Z,5.40
2018-02-03T12:21:42.395Z,5.40
2018-02-03T12:24:10.932Z,5.50
2018-02-03T12:26:39.492Z,5.50
2018-02-03T12:29:08.022Z,5.50
2018-02-03T12:31:36.688Z,5.50
2018-02-03T12:34:07.097Z,5.40
2018-02-03T12:36:35.625Z,5.30
2018-02-03T12:39:03.594Z,5.20
2018-02-03T12:41:32.038Z,5.20
2018-02-03T12:44:00.517Z,5.20
2018-02-03T12:46:28.985Z,5.10
2018-02-03T12:48:57.308Z,5.20
2018-02-03T12:51:25.874Z,5.20
2018-02-03T12:53:54.601Z,5.20
2018-02-03T12:56:23.088Z,5.20
2018-02-03T12:58:51.729Z,5.20
2018-02-03T13:01:20.991Z,5.40
2018-02-03T13:03:49.441Z,5.40
2018-02-03T13:06:17.934Z,5.50
2018-02-03T13:08:46.408Z,5.40
2018-02-03T13:11:14.872Z,5.50
2018-02-03T13:13:43.357Z,5.60
2018-02-03T13:16:15.208Z,5.60
2018-02-03T13:18:43.754Z,5.60
2018-02-03T13:21:24.463Z,5.70
2018-02-03T13:23:56.253Z,5.70
2018-02-03T13:26:24.756Z,5.70
2018-02-03T13:28:58.769Z,5.60
2018-02-03T13:31:27.248Z,5.60
2018-02-03T13:33:55.701Z,5.70
2018-02-03T13:36:24.177Z,5.80
2018-02-03T13:38:52.702Z,5.80
2018-02-03T13:41:21.457Z,5.90
2018-02-03T13:43:49.989Z,6.00
2018-02-03T13:46:19.292Z,5.90
2018-02-03T13:48:47.654Z,5.90
2018-02-03T13:51:16.963Z,6.00
2018-02-03T13:53:46.273Z,6.00
2018-02-03T13:56:15.546Z,6.00
2018-02-03T13:58:44.106Z,6.00
2018-02-03T14:01:12.655Z,6.00
2018-02-03T14:03:41.216Z,6.00
2018-02-03T14:06:10.548Z,6.20
2018-02-03T14:08:39.138Z,6.20
2018-02-03T14:11:07.682Z,6.20
2018-02-03T14:13:36.268Z,6.30
2018-02-03T14:16:05.578Z,6.10
2018-02-03T14:18:34.109Z,6.10
2018-02-03T14:21:02.663Z,6.00
2018-02-03T14:23:31.191Z,6.00
2018-02-03T14:26:05.292Z,5.90
2018-02-03T14:28:33.961Z,5.90
2018-02-03T14:31:02.488Z,5.90
2018-02-03T14:33:31.777Z,5.70
2018-02-03T14:36:00.344Z,5.70
2018-02-03T14:38:28.889Z,5.50
2018-02-03T14:40:57.474Z,5.40
2018-02-03T14:43:26.045Z,5.30
2018-02-03T14:45:54.542Z,5.20
2018-02-03T14:48:23.124Z,5.10
2018-02-03T14:50:51.762Z,5.00
2018-02-03T14:53:20.324Z,5.00
2018-02-03T14:55:48.910Z,4.90
2018-02-03T14:58:18.440Z,4.80
2018-02-03T15:00:47.746Z,4.70
2018-02-03T15:03:16.308Z,4.60
2018-02-03T15:05:44.884Z,4.60
2018-02-03T15:08:13.410Z,4.60
2018-02-03T15:10:42.142Z,4.50
2018-02-03T15:13:10.681Z,4.40
2018-02-03T15:15:39.192Z,4.40
2018-02-03T15:18:07.749Z,4.40
2018-02-03T15:20:36.266Z,4.40
2018-02-03T15:23:04.774Z,4.30
2018-02-03T15:25:34.073Z,4.30
2018-02-03T15:28:03.426Z,4.30
2018-02-03T15:30:31.952Z,4.20
2018-02-03T15:33:01.351Z,4.30
2018-02-03T15:35:30.957Z,4.30
2018-02-03T15:38:00.347Z,4.30
2018-02-03T15:40:29.143Z,4.20
2018-02-03T15:42:57.926Z,4.20
2018-02-03T15:45:26.518Z,4.20
2018-02-03T15:47:55.371Z,4.10
2018-02-03T15:50:23.994Z,4.00
2018-02-03T15:52:52.602Z,4.00
2018-02-03T15:55:21.166Z,3.90
2018-02-03T15:57:50.598Z,3.90
2018-02-03T16:00:19.254Z,3.80
2018-02-03T16:02:47.931Z,3.80
2018-02-03T16:05:16.585Z,3.70
2018-02-03T16:07:45.480Z,3.60
2018-02-03T16:10:14.086Z,3.60
2018-02-03T16:12:42.704Z,3.50
2018-02-03T16:15:11.413Z,3.40
2018-02-03T16:17:40.046Z,3.40
2018-02-03T16:20:08.705Z,3.30
2018-02-03T16:22:37.345Z,3.20
2018-02-03T16:25:06.037Z,3.10
2018-02-03T16:27:34.670Z,3.10
2018-02-03T16:30:03.235Z,3.00
2018-02-03T16:32:31.800Z,3.00
2018-02-03T16:35:00.520Z,2.80
2018-02-03T16:37:29.035Z,2.70
2018-02-03T16:39:57.728Z,2.70
2018-02-03T16:42:26.478Z,2.60
2018-02-03T16:44:55.194Z,2.50
2018-02-03T16:47:23.892Z,2.40
2018-02-03T16:49:52.474Z,2.40
2018-02-03T16:52:21.167Z,2.30
2018-02-03T16:54:49.791Z,2.30
2018-02-03T16:57:18.414Z,2.20
2018-02-03T16:59:48.472Z,2.00
2018-02-03T17:02:17.133Z,2.00
2018-02-03T17:04:46.466Z,1.80
2018-02-03T17:07:14.408Z,1.80
2018-02-03T17:09:42.935Z,1.70
2018-02-03T17:12:11.466Z,1.60
2018-02-03T17:14:40.030Z,1.50
2018-02-03T17:17:09.477Z,1.30
2018-02-03T17:19:38.062Z,1.30
2018-02-03T17:22:06.556Z,1.30
2018-02-03T17:24:35.099Z,1.30
2018-02-03T17:27:03.706Z,1.10
2018-02-03T17:29:32.260Z,1.10
2018-02-03T17:32:01.449Z,1.00
2018-02-03T17:34:31.117Z,0.90
2018-02-03T17:37:05.070Z,0.90
2018-02-03T17:39:34.337Z,0.70
2018-02-03T17:42:02.819Z,0.70
2018-02-03T17:44:31.439Z,0.60
2018-02-03T17:47:10.958Z,0.60
2018-02-03T17:49:39.806Z,0.60
2018-02-03T17:52:08.405Z,0.60
2018-02-03T17:54:37.236Z,0.60
2018-02-03T17:57:12.132Z,0.50
2018-02-03T17:59:42.265Z,0.50
2018-02-03T18:02:10.751Z,0.50
2018-02-03T18:04:40.593Z,0.50
2018-02-03T18:07:09.146Z,0.50
2018-02-03T18:09:37.670Z,0.40
2018-02-03T18:12:06.213Z,0.40
2018-02-03T18:14:34.792Z,0.40
2018-02-03T18:17:04.334Z,0.40
2018-02-03T18:19:32.862Z,0.40
2018-02-03T18:22:01.435Z,0.40
2018-02-03T18:24:30.008Z,0.40
2018-02-03T18:26:58.552Z,0.30
2018-02-03T18:29:27.874Z,0.30
2018-02-03T18:31:56.369Z,0.30
2018-02-03T18:34:24.899Z,0.30
2018-02-03T18:36:56.418Z,0.20
2018-02-03T18:39:24.727Z,0.20
2018-02-03T18:41:53.265Z,0.20
2018-02-03T18:44:21.786Z,0.30
2018-02-03T18:46:50.342Z,0.30
2018-02-03T18:49:18.886Z,0.30
2018-02-03T18:51:47.426Z,0.20
2018-02-03T18:54:16.029Z,0.20
2018-02-03T18:56:45.345Z,0.20
2018-02-03T18:59:13.907Z,0.20
2018-02-03T19:01:42.461Z,0.20
2018-02-03T19:04:11.043Z,0.20
2018-02-03T19:06:39.670Z,0.20
2018-02-03T19:09:09.024Z,0.20
2018-02-03T19:11:37.758Z,0.20
2018-02-03T19:14:10.550Z,0.20
2018-02-03T19:16:39.112Z,0.20
2018-02-03T19:19:07.622Z,0.10
2018-02-03T19:21:36.170Z,0.10
2018-02-03T19:24:04.754Z,0.10
2018-02-03T19:26:33.300Z,0.00
2018-02-03T19:29:01.834Z,0.10
2018-02-03T19:31:31.146Z,0.10
2018-02-03T19:33:59.665Z,0.10
2018-02-03T19:36:28.235Z,0.10
2018-02-03T19:38:56.814Z,0.00
2018-02-03T19:41:25.345Z,0.00
2018-02-03T19:43:53.918Z,0.00
2018-02-03T19:46:22.465Z,0.00
2018-02-03T19:48:50.965Z,0.10
2018-02-03T19:51:19.515Z,0.00
2018-02-03T19:53:47.472Z,0.00
2018-02-03T19:56:16.002Z,0.00
2018-02-03T19:58:44.570Z,0.00
2018-02-03T20:01:13.111Z,0.00
2018-02-03T20:03:42.367Z,0.00
2018-02-03T20:06:10.951Z,-0.10
2018-02-03T20:08:39.510Z,0.00
2018-02-03T20:11:07.778Z,-0.10
2018-02-03T20:13:36.343Z,-0.10
2018-02-03T20:16:05.671Z,-0.10
2018-02-03T20:18:34.242Z,-0.10
2018-02-03T20:21:02.839Z,-0.20
2018-02-03T20:23:31.436Z,-0.20
2018-02-03T20:26:00.094Z,-0.30
2018-02-03T20:28:28.678Z,-0.40
2018-02-03T20:30:57.216Z,-0.40
2018-02-03T20:33:25.759Z,-0.40
2018-02-03T20:35:54.338Z,-0.40
2018-02-03T20:38:22.895Z,-0.40
2018-02-03T20:40:53.078Z,-0.50
2018-02-03T20:43:21.630Z,-0.50
2018-02-03T20:45:51.225Z,-0.50
2018-02-03T20:48:19.787Z,-0.60
2018-02-03T20:50:49.156Z,-0.60
2018-02-03T20:53:17.553Z,-0.60
2018-02-03T20:55:46.094Z,-0.60
2018-02-03T20:58:15.414Z,-0.70
2018-02-03T21:00:43.969Z,-0.70
2018-02-03T21:03:12.502Z,-0.80
2018-02-03T21:05:41.087Z,-0.90
2018-02-03T21:08:10.402Z,-0.90
2018-02-03T21:10:39.659Z,-1.00
2018-02-03T21:13:08.214Z,-1.00
2018-02-03T21:15:36.774Z,-1.00
2018-02-03T21:18:05.302Z,-1.00
2018-02-03T21:20:34.119Z,-1.10
2018-02-03T21:23:02.987Z,-1.20
2018-02-03T21:25:31.778Z,-1.20
2018-02-03T21:28:00.599Z,-1.30
2018-02-03T21:30:29.933Z,-1.30
2018-02-03T21:32:59.506Z,-1.30
2018-02-03T21:35:28.352Z,-1.40
2018-02-03T21:37:57.177Z,-1.40
2018-02-03T21:40:26.016Z,-1.40
2018-02-03T21:42:54.867Z,-1.40
2018-02-03T21:45:23.629Z,-1.40
2018-02-03T21:47:52.010Z,-1.40
2018-02-03T21:50:20.827Z,-1.40
2018-02-03T21:52:49.694Z,-1.50
2018-02-03T21:55:18.516Z,-1.50
2018-02-03T21:57:47.342Z,-1.50
2018-02-03T22:00:16.162Z,-1.50
2018-02-03T22:02:56.930Z,-1.50
2018-02-03T22:05:25.766Z,-1.60
2018-02-03T22:07:55.322Z,-1.60
2018-02-03T22:10:24.154Z,-1.70
2018-02-03T22:12:53.747Z,-1.60
2018-02-03T22:15:22.578Z,-1.60
2018-02-03T22:17:51.419Z,-1.60
2018-02-03T22:20:20.302Z,-1.60
2018-02-03T22:22:49.126Z,-1.60
2018-02-03T22:25:18.699Z,-1.60
2018-02-03T22:27:46.938Z,-1.60
2018-02-03T22:30:15.784Z,-1.60
2018-02-03T22:32:44.655Z,-1.60
2018-02-03T22:35:13.496Z,-1.70
2018-02-03T22:37:43.348Z,-1.70
2018-02-03T22:40:12.172Z,-1.80
2018-02-03T22:42:41.166Z,-1.80
2018-02-03T22:45:09.664Z,-1.80
2018-02-03T22:47:38.516Z,-1.70
2018-02-03T22:50:07.353Z,-1.80
2018-02-03T22:52:36.174Z,-1.70
2018-02-03T22:55:05.034Z,-1.50
2018-02-03T22:57:33.878Z,-1.40
2018-02-03T23:00:03.161Z,-1.20
2018-02-03T23:02:37.876Z,-1.10
2018-02-03T23:05:06.720Z,-1.10
2018-02-03T23:07:36.293Z,-1.00
2018-02-03T23:10:05.128Z,-1.00
2018-02-03T23:12:33.694Z,-1.00
2018-02-03T23:15:03.023Z,-1.10
2018-02-03T23:17:31.580Z,-1.10
2018-02-03T23:20:01.185Z,-1.20
2018-02-03T23:22:29.706Z,-1.20
2018-02-03T23:24:58.316Z,-1.20
2018-02-03T23:27:27.170Z,-1.30
2018-02-03T23:29:56.006Z,-1.30
2018-02-03T23:32:25.315Z,-1.30
2018-02-03T23:34:54.630Z,-1.30
2018-02-03T23:37:24.174Z,-1.20
2018-02-03T23:39:52.421Z,-1.20
2018-02-03T23:42:21.262Z,-1.10
2018-02-03T23:44:50.006Z,-1.10
2018-02-03T23:47:18.567Z,-1.10
2018-02-03T23:49:48.142Z,-1.10
2018-02-03T23:52:17.475Z,-1.00
2018-02-03T23:54:46.038Z,-1.10
2018-02-03T23:57:14.604Z,-1.00
2018-02-03T23:59:42.964Z,-1.00
